Time;durP1;ratioP1;P1;durP2;ratioP2;P2;SDS_P1;SDS_P2;PMS_P1;PMS_P2;Temp;Humidity;BMP_temperature;BMP_pressure;BME280_temperature;BME280_humidity;BME280_pressure;Samples;Min_cycle;Max_cycle;Signal;HPM_P1;HPM_P2
2022/04/24 00:01:48;;;;;;;5.85;2.40;;;16.20;91.20;;;;;;4932885;29;20042;-77
2022/04/24 00:04:14;;;;;;;5.35;1.83;;;16.20;91.30;;;;;;4930664;29;20469;-77
2022/04/24 00:06:41;;;;;;;4.40;1.90;;;16.30;91.30;;;;;;4932868;29;20047;-77
2022/04/24 00:09:07;;;;;;;4.63;1.90;;;16.30;91.40;;;;;;4927357;29;20071;-77
2022/04/24 00:11:33;;;;;;;5.15;1.90;;;16.30;91.40;;;;;;4932494;29;20075;-77
2022/04/24 00:13:58;;;;;;;5.75;1.77;;;16.10;91.90;;;;;;4933506;29;20039;-76
2022/04/24 00:16:24;;;;;;;4.70;1.70;;;16.20;91.70;;;;;;4932306;29;20497;-76
2022/04/24 00:18:50;;;;;;;7.28;2.22;;;16.20;91.70;;;;;;4934495;29;20062;-77
2022/04/24 00:21:15;;;;;;;6.90;2.08;;;16.20;91.70;;;;;;4932166;29;20036;-76
2022/04/24 00:23:41;;;;;;;8.32;2.38;;;16.20;91.70;;;;;;4917670;29;20485;-76
2022/04/24 00:26:07;;;;;;;7.10;2.45;;;16.20;91.70;;;;;;4915589;29;20119;-77
2022/04/24 00:28:33;;;;;;;6.18;2.03;;;16.10;91.70;;;;;;4934706;29;20036;-76
2022/04/24 00:30:59;;;;;;;6.55;2.10;;;16.10;91.70;;;;;;4917388;29;20044;-77
2022/04/24 00:33:24;;;;;;;7.75;2.45;;;16.20;91.80;;;;;;4928620;29;20134;-77
2022/04/24 00:35:50;;;;;;;10.93;2.25;;;16.20;91.80;;;;;;4933809;29;20031;-76
2022/04/24 00:38:16;;;;;;;5.82;1.90;;;16.20;91.80;;;;;;4923151;29;20043;-76
2022/04/24 00:40:46;;;;;;;4.32;1.60;;;16.20;91.80;;;;;;4932655;29;20039;-76
2022/04/24 00:43:11;;;;;;;4.10;1.90;;;16.20;91.70;;;;;;4926090;29;20366;-76
2022/04/24 00:45:37;;;;;;;6.15;2.00;;;16.20;91.80;;;;;;4932574;29;20505;-75
2022/04/24 00:48:03;;;;;;;5.82;2.25;;;16.20;91.80;;;;;;4932609;29;20042;-76
2022/04/24 00:50:29;;;;;;;6.70;1.88;;;16.10;92.00;;;;;;4927094;29;20048;-75
2022/04/24 00:52:54;;;;;;;8.32;2.33;;;16.10;92.00;;;;;;4932502;29;20091;-75
2022/04/24 00:55:23;;;;;;;5.95;1.92;;;16.10;92.00;;;;;;4930600;29;20444;-75
2022/04/24 00:57:49;;;;;;;6.13;1.92;;;16.10;91.90;;;;;;4933688;29;20107;-75
2022/04/24 01:00:15;;;;;;;8.27;2.45;;;16.00;91.90;;;;;;4932792;29;20067;-76
2022/04/24 01:02:41;;;;;;;7.30;2.60;;;16.10;91.90;;;;;;4931765;29;20095;-75
2022/04/24 01:05:08;;;;;;;6.60;2.08;;;16.10;91.90;;;;;;4931028;29;20043;-76
2022/04/24 01:07:35;;;;;;;6.35;1.92;;;16.10;91.80;;;;;;4933514;29;20064;-75
2022/04/24 01:10:00;;;;;;;7.63;2.20;;;16.00;92.00;;;;;;4931838;29;20035;-75
2022/04/24 01:12:26;;;;;;;5.43;1.98;;;16.00;92.10;;;;;;4930195;29;20043;-75
2022/04/24 01:14:52;;;;;;;5.85;1.65;;;15.80;92.20;;;;;;4933172;29;20086;-75
2022/04/24 01:17:18;;;;;;;7.43;2.30;;;15.80;92.30;;;;;;4930132;29;20055;-75
2022/04/24 01:19:44;;;;;;;6.45;1.67;;;15.70;92.40;;;;;;4933068;29;20074;-75
2022/04/24 01:22:10;;;;;;;6.70;2.20;;;15.70;92.40;;;;;;4933118;29;20067;-75
2022/04/24 01:24:36;;;;;;;6.40;1.70;;;15.80;92.40;;;;;;4931876;29;20067;-75
2022/04/24 01:27:01;;;;;;;6.88;2.00;;;15.70;92.50;;;;;;4932888;29;20028;-75
2022/04/24 01:29:27;;;;;;;6.47;2.15;;;15.70;92.30;;;;;;4932140;29;20699;-76
2022/04/24 01:31:53;;;;;;;7.35;2.20;;;15.80;92.20;;;;;;4933384;29;20035;-76
2022/04/24 01:34:20;;;;;;;5.88;2.20;;;15.90;92.20;;;;;;4931359;29;20131;-76
2022/04/24 01:36:46;;;;;;;7.35;2.60;;;15.90;92.10;;;;;;4931296;29;20035;-76
2022/04/24 01:39:14;;;;;;;6.40;1.95;;;16.00;92.00;;;;;;4931413;29;20043;-76
2022/04/24 01:41:39;;;;;;;5.78;2.03;;;16.00;92.00;;;;;;4931347;29;20552;-76
2022/04/24 01:44:06;;;;;;;6.30;2.40;;;16.00;92.00;;;;;;4931539;29;20051;-77
2022/04/24 01:46:37;;;;;;;8.02;2.63;;;16.00;92.00;;;;;;4930315;29;20039;-76
2022/04/24 01:49:03;;;;;;;9.45;2.67;;;16.10;92.00;;;;;;4930921;29;20039;-77
2022/04/24 01:51:29;;;;;;;7.95;2.60;;;16.10;92.00;;;;;;4930633;29;20039;-77
2022/04/24 01:53:54;;;;;;;9.75;3.15;;;16.10;91.90;;;;;;4913960;29;20047;-75
2022/04/24 01:56:20;;;;;;;9.70;3.15;;;16.00;92.20;;;;;;4914013;29;20039;-75
2022/04/24 01:58:46;;;;;;;9.60;3.00;;;16.00;92.10;;;;;;4932127;29;20028;-76
2022/04/24 02:01:11;;;;;;;6.55;3.17;;;16.00;92.00;;;;;;4912214;29;20138;-76
2022/04/24 02:03:37;;;;;;;6.80;2.60;;;16.00;92.00;;;;;;4931620;29;20350;-75
2022/04/24 02:06:04;;;;;;;7.13;2.78;;;16.00;91.90;;;;;;4930611;29;20043;-75
2022/04/24 02:08:31;;;;;;;7.78;2.90;;;16.00;92.10;;;;;;4930548;29;20044;-78
2022/04/24 02:10:58;;;;;;;9.10;3.22;;;15.90;92.40;;;;;;4930277;29;20035;-75
2022/04/24 02:13:24;;;;;;;11.00;3.50;;;15.70;92.40;;;;;;4930229;29;20610;-76
2022/04/24 02:15:50;;;;;;;7.63;3.13;;;15.70;92.70;;;;;;4927049;29;20059;-76
2022/04/24 02:18:16;;;;;;;9.18;3.15;;;15.70;92.60;;;;;;4931360;29;20036;-75
2022/04/24 02:20:41;;;;;;;6.68;2.83;;;15.60;92.80;;;;;;4929426;29;20036;-76
2022/04/24 02:23:08;;;;;;;6.03;2.60;;;15.70;92.70;;;;;;4930539;29;20108;-76
2022/04/24 02:25:34;;;;;;;5.88;2.40;;;15.70;92.70;;;;;;4928393;29;20460;-75
2022/04/24 02:28:00;;;;;;;7.47;2.88;;;15.70;92.60;;;;;;4929785;29;20122;-76
2022/04/24 02:30:28;;;;;;;8.38;3.17;;;15.70;92.60;;;;;;4927529;29;20042;-75
2022/04/24 02:32:58;;;;;;;8.25;3.08;;;15.70;92.70;;;;;;4927252;29;20052;-75
2022/04/24 02:35:25;;;;;;;8.65;3.85;;;15.60;92.60;;;;;;4912722;29;20052;-75
2022/04/24 02:37:51;;;;;;;20.67;9.23;;;15.60;92.70;;;;;;4928014;29;20456;-75
2022/04/24 02:40:21;;;;;;;9.45;5.43;;;15.30;93.20;;;;;;4929944;29;20028;-74
2022/04/24 02:42:49;;;;;;;9.40;5.45;;;15.00;94.10;;;;;;4912917;29;20122;-75
2022/04/24 02:45:15;;;;;;;10.95;5.18;;;15.10;94.00;;;;;;4929318;29;20039;-74
2022/04/24 02:47:40;;;;;;;8.65;5.28;;;15.20;93.90;;;;;;4930088;29;20044;-74
2022/04/24 02:50:07;;;;;;;9.13;4.57;;;15.20;93.70;;;;;;4934676;29;20039;-75
2022/04/24 02:52:32;;;;;;;8.73;4.80;;;15.20;93.60;;;;;;4933682;29;20043;-74
2022/04/24 02:54:58;;;;;;;7.13;4.32;;;15.40;93.40;;;;;;4935919;29;20164;-76
2022/04/24 02:57:23;;;;;;;10.15;4.85;;;15.40;93.10;;;;;;4935162;29;20036;-77
2022/04/24 02:59:49;;;;;;;7.45;4.32;;;15.50;93.00;;;;;;4933412;29;20500;-77
2022/04/24 03:02:16;;;;;;;11.15;4.28;;;15.60;92.80;;;;;;4913286;29;20484;-78
2022/04/24 03:04:43;;;;;;;10.20;3.75;;;15.60;92.70;;;;;;4930424;29;20110;-77
2022/04/24 03:07:08;;;;;;;8.88;4.50;;;15.70;92.60;;;;;;4915518;29;20078;-77
2022/04/24 03:09:34;;;;;;;8.70;3.85;;;15.70;92.60;;;;;;4932268;29;20494;-77
2022/04/24 03:12:00;;;;;;;6.78;3.15;;;15.70;92.50;;;;;;4916123;29;20124;-76
2022/04/24 03:14:25;;;;;;;6.80;3.28;;;15.70;92.60;;;;;;4932319;29;20354;-76
2022/04/24 03:16:51;;;;;;;8.18;3.60;;;15.70;92.50;;;;;;4929233;29;20044;-75
2022/04/24 03:19:17;;;;;;;6.95;2.78;;;15.80;92.50;;;;;;4930364;29;20031;-75
2022/04/24 03:21:43;;;;;;;6.13;2.65;;;15.70;92.80;;;;;;4935168;29;20035;-75
2022/04/24 03:24:08;;;;;;;7.00;3.40;;;15.70;92.70;;;;;;4934036;29;20034;-75
2022/04/24 03:26:34;;;;;;;8.52;3.53;;;15.70;92.60;;;;;;4932937;29;20559;-75
2022/04/24 03:29:00;;;;;;;7.15;3.28;;;15.70;92.90;;;;;;4934824;29;20043;-75
2022/04/24 03:31:26;;;;;;;11.88;4.38;;;15.60;92.70;;;;;;4932331;29;20526;-75
2022/04/24 03:33:52;;;;;;;4.95;2.30;;;15.60;92.60;;;;;;4935011;29;20683;-76
2022/04/24 03:36:18;;;;;;;6.07;2.40;;;15.60;92.70;;;;;;4933116;29;20115;-76
2022/04/24 03:38:44;;;;;;;5.93;2.55;;;15.70;92.60;;;;;;4931367;29;20044;-76
2022/04/24 03:41:10;;;;;;;6.03;2.00;;;15.60;92.40;;;;;;4932093;29;20134;-76
2022/04/24 03:43:36;;;;;;;5.65;1.92;;;15.60;92.40;;;;;;4930260;29;20047;-77
2022/04/24 03:46:02;;;;;;;3.45;1.58;;;15.60;92.30;;;;;;4931292;29;20388;-77
2022/04/24 03:48:27;;;;;;;3.65;1.83;;;15.70;92.30;;;;;;4930475;29;20040;-75
2022/04/24 03:50:53;;;;;;;9.35;2.92;;;15.70;92.20;;;;;;4934012;29;20054;-76
2022/04/24 03:53:19;;;;;;;5.15;1.65;;;15.60;92.10;;;;;;4916756;29;20047;-76
2022/04/24 03:55:47;;;;;;;3.63;1.50;;;15.60;92.10;;;;;;4932886;29;20038;-76
2022/04/24 03:58:13;;;;;;;4.30;1.75;;;15.60;92.10;;;;;;4928928;29;20044;-76
2022/04/24 04:00:39;;;;;;;3.00;1.60;;;15.60;92.00;;;;;;4926987;29;20039;-75
2022/04/24 04:03:05;;;;;;;2.65;1.30;;;15.50;92.00;;;;;;4932604;29;20043;-75
2022/04/24 04:05:30;;;;;;;5.18;1.52;;;15.40;92.20;;;;;;4933669;29;20044;-75
2022/04/24 04:07:56;;;;;;;4.40;1.52;;;15.30;92.20;;;;;;4928605;29;20043;-75
2022/04/24 04:10:22;;;;;;;2.15;1.05;;;15.30;92.20;;;;;;4930869;29;20076;-76
2022/04/24 04:12:50;;;;;;;3.97;0.90;;;15.30;92.20;;;;;;4930700;29;20051;-75
2022/04/24 04:15:16;;;;;;;3.17;1.00;;;15.40;92.10;;;;;;4914518;29;20540;-75
2022/04/24 04:17:41;;;;;;;4.10;1.00;;;15.40;92.00;;;;;;4932328;29;20036;-76
2022/04/24 04:20:11;;;;;;;3.08;1.10;;;15.50;92.00;;;;;;4914725;29;20163;-77
2022/04/24 04:22:54;;;;;;;2.08;0.98;;;15.50;91.80;;;;;;4930252;29;20039;-77
2022/04/24 04:25:21;;;;;;;4.45;0.90;;;15.50;91.70;;;;;;4932709;29;20047;-76
2022/04/24 04:27:47;;;;;;;3.65;1.10;;;15.50;91.60;;;;;;4934731;29;20043;-75
2022/04/24 04:30:13;;;;;;;3.88;1.20;;;15.50;91.50;;;;;;4932101;29;20499;-76
2022/04/24 04:32:39;;;;;;;2.92;1.00;;;15.50;91.30;;;;;;4926593;29;20058;-76
2022/04/24 04:35:05;;;;;;;3.42;1.00;;;15.50;91.40;;;;;;4933515;29;20485;-76
2022/04/24 04:37:32;;;;;;;1.45;0.65;;;15.50;91.30;;;;;;4932669;29;20384;-76
2022/04/24 04:39:58;;;;;;;3.55;1.10;;;15.30;91.20;;;;;;4929764;29;20028;-76
2022/04/24 04:42:23;;;;;;;3.33;0.82;;;15.30;91.20;;;;;;4932426;29;20047;-76
2022/04/24 04:44:49;;;;;;;1.88;0.80;;;15.10;91.00;;;;;;4905712;29;20412;-76
2022/04/24 04:47:15;;;;;;;4.65;1.00;;;15.10;91.40;;;;;;4927283;29;20071;-76
2022/04/24 04:49:40;;;;;;;3.03;1.10;;;15.20;91.40;;;;;;4930442;29;20416;-76
2022/04/24 04:52:06;;;;;;;1.55;0.50;;;14.90;91.20;;;;;;4925171;29;20044;-76
2022/04/24 04:54:32;;;;;;;1.75;0.68;;;14.90;91.30;;;;;;4932712;29;20445;-76
2022/04/24 04:56:57;;;;;;;3.40;0.55;;;15.00;91.30;;;;;;4932476;29;20063;-76
2022/04/24 04:59:23;;;;;;;2.13;0.70;;;15.10;91.20;;;;;;4914890;29;20036;-76
2022/04/24 05:01:49;;;;;;;3.35;0.82;;;15.10;91.00;;;;;;4930861;29;20385;-75
2022/04/24 05:04:14;;;;;;;1.80;0.70;;;15.00;90.90;;;;;;4927852;29;20445;-75
2022/04/24 05:06:40;;;;;;;1.50;0.60;;;15.00;90.90;;;;;;4931494;29;20047;-76
2022/04/24 05:09:06;;;;;;;2.20;0.98;;;15.10;90.90;;;;;;4929125;29;20404;-75
2022/04/24 05:11:31;;;;;;;1.63;0.80;;;15.10;90.90;;;;;;4930590;29;20411;-74
2022/04/24 05:13:57;;;;;;;2.92;0.73;;;15.00;90.50;;;;;;4930129;29;20036;-74
2022/04/24 05:16:23;;;;;;;1.70;0.88;;;15.00;90.80;;;;;;4928152;29;20052;-75
2022/04/24 05:18:49;;;;;;;2.78;1.02;;;15.00;90.80;;;;;;4926004;29;20042;-76
2022/04/24 05:21:17;;;;;;;2.08;1.35;;;15.10;90.80;;;;;;4929323;29;20099;-76
2022/04/24 05:23:45;;;;;;;4.95;2.47;;;15.00;91.10;;;;;;4931433;29;20094;-76
2022/04/24 05:26:12;;;;;;;6.82;2.70;;;14.60;91.40;;;;;;4929770;29;20035;-75
2022/04/24 05:28:38;;;;;;;3.20;2.08;;;14.40;92.10;;;;;;4931089;29;20092;-76
2022/04/24 05:31:05;;;;;;;6.47;2.95;;;14.30;92.60;;;;;;4929645;29;20043;-76
2022/04/24 05:33:30;;;;;;;2.85;2.22;;;14.20;92.70;;;;;;4930182;29;20048;-76
2022/04/24 05:35:56;;;;;;;3.55;1.67;;;14.20;92.80;;;;;;4929448;29;20032;-75
2022/04/24 05:38:22;;;;;;;5.13;2.40;;;14.30;92.70;;;;;;4928747;29;20048;-76
2022/04/24 05:40:47;;;;;;;2.05;1.52;;;14.20;92.70;;;;;;4931943;29;20083;-77
2022/04/24 05:43:13;;;;;;;7.18;3.20;;;14.40;92.70;;;;;;4915016;29;20039;-76
2022/04/24 05:45:39;;;;;;;7.53;3.10;;;14.30;92.60;;;;;;4933260;29;20062;-75
2022/04/24 05:48:05;;;;;;;5.00;2.75;;;14.30;92.70;;;;;;4933861;29;20131;-76
2022/04/24 05:50:31;;;;;;;2.55;1.75;;;14.20;93.10;;;;;;4932476;29;20044;-76
2022/04/24 05:53:34;;;;;;;4.10;2.22;;;14.30;93.20;;;;;;3177140;23;20263;-91
2022/04/24 05:56:15;;;;;;;5.22;2.25;;;14.40;93.10;;;;;;4960946;28;20081;-92
2022/04/24 05:58:41;;;;;;;4.15;2.55;;;14.60;92.80;;;;;;4959330;28;20067;-94
2022/04/24 06:01:13;;;;;;;4.20;3.00;;;14.70;92.30;;;;;;4971855;28;20031;-93
2022/04/24 06:03:42;;;;;;;6.05;4.13;;;14.70;92.40;;;;;;4970530;28;20034;-92
2022/04/24 06:06:10;;;;;;;3.92;2.75;;;14.50;91.90;;;;;;4973015;28;20036;-93
2022/04/24 06:08:36;;;;;;;6.78;3.50;;;14.60;92.20;;;;;;4956567;28;20035;-94
2022/04/24 06:11:02;;;;;;;6.38;4.00;;;14.60;91.80;;;;;;4972169;28;20038;-93
2022/04/24 06:13:33;;;;;;;3.95;2.55;;;14.60;91.50;;;;;;4964578;28;20042;-93
2022/04/24 06:15:59;;;;;;;5.82;3.45;;;14.70;91.70;;;;;;4955751;28;20047;-94
2022/04/24 06:18:25;;;;;;;5.18;3.78;;;14.80;91.40;;;;;;4966231;28;20043;-92
2022/04/24 06:23:44;;;;;;;6.63;4.07;;;14.90;91.60;;;;;;4899449;23;20060;-78
2022/04/24 06:26:09;;;;;;;5.15;4.22;;;15.00;91.60;;;;;;4911482;29;20497;-75
2022/04/24 06:28:37;;;;;;;9.45;7.13;;;15.20;91.60;;;;;;4908238;29;20092;-75
2022/04/24 06:31:03;;;;;;;17.42;10.98;;;15.20;91.20;;;;;;4912501;29;20071;-75
2022/04/24 06:33:29;;;;;;;8.52;6.30;;;14.90;91.20;;;;;;4905818;29;20087;-75
2022/04/24 06:35:55;;;;;;;6.55;4.90;;;14.90;91.60;;;;;;4893398;29;20040;-75
2022/04/24 06:38:22;;;;;;;9.68;5.72;;;15.10;91.50;;;;;;4900090;29;20032;-76
2022/04/24 06:40:48;;;;;;;18.13;13.18;;;15.20;91.40;;;;;;4893511;29;20040;-75
2022/04/24 06:43:14;;;;;;;9.25;7.03;;;15.10;91.10;;;;;;4900178;29;20041;-77
2022/04/24 06:45:42;;;;;;;11.65;6.57;;;15.00;91.80;;;;;;4900409;29;20071;-78
2022/04/24 06:48:12;;;;;;;9.88;7.07;;;15.20;91.60;;;;;;4881388;29;20040;-77
2022/04/24 06:50:41;;;;;;;11.95;9.70;;;15.30;91.40;;;;;;4900179;29;20060;-78
2022/04/24 06:53:20;;;;;;;8.75;6.95;;;15.10;91.10;;;;;;4899984;29;20131;-82
2022/04/24 06:55:48;;;;;;;11.68;8.07;;;15.20;91.10;;;;;;4899070;29;20087;-77
2022/04/24 06:58:16;;;;;;;11.68;9.70;;;15.20;91.20;;;;;;4881953;29;20045;-82
2022/04/24 07:00:44;;;;;;;15.70;10.55;;;15.20;90.70;;;;;;4899190;29;20440;-76
2022/04/24 07:03:16;;;;;;;9.57;6.90;;;15.10;90.70;;;;;;4882159;29;20048;-79
2022/04/24 07:05:43;;;;;;;6.55;4.90;;;15.10;90.90;;;;;;4882274;29;20068;-77
2022/04/24 07:08:09;;;;;;;5.95;5.32;;;15.10;90.90;;;;;;4897353;29;20045;-77
2022/04/24 07:10:35;;;;;;;8.52;5.95;;;15.30;90.90;;;;;;4921950;23;20048;-76
2022/04/24 07:13:03;;;;;;;7.30;5.32;;;15.50;90.80;;;;;;4899495;29;20043;-76
2022/04/24 07:15:31;;;;;;;8.38;5.55;;;15.60;90.60;;;;;;4918409;29;20040;-78
2022/04/24 07:17:57;;;;;;;7.55;5.40;;;15.70;90.20;;;;;;4914382;29;20102;-76
2022/04/24 07:20:24;;;;;;;7.97;5.30;;;15.90;90.00;;;;;;4911769;29;20044;-77
2022/04/24 07:22:52;;;;;;;12.07;6.95;;;15.90;89.40;;;;;;4900105;29;20048;-77
2022/04/24 07:25:21;;;;;;;8.50;4.63;;;15.80;86.40;;;;;;4891875;29;20049;-77
2022/04/24 07:27:47;;;;;;;7.60;5.70;;;15.90;88.10;;;;;;4913513;29;20044;-78
2022/04/24 07:30:15;;;;;;;6.88;5.03;;;16.00;87.90;;;;;;4907896;29;20106;-77
2022/04/24 07:32:43;;;;;;;5.32;4.40;;;16.00;87.20;;;;;;4896359;29;20043;-77
2022/04/24 07:35:15;;;;;;;7.63;4.70;;;16.00;86.90;;;;;;4906695;29;20516;-76
2022/04/24 07:37:41;;;;;;;7.45;5.25;;;16.00;87.40;;;;;;4911310;29;20024;-76
2022/04/24 07:40:10;;;;;;;8.90;7.28;;;16.20;87.60;;;;;;4912423;29;20070;-76
2022/04/24 07:42:47;;;;;;;9.77;7.63;;;16.10;85.80;;;;;;4913071;29;20092;-77
2022/04/24 07:45:29;;;;;;;13.00;7.18;;;15.50;85.10;;;;;;4911397;29;20417;-77
2022/04/24 07:47:56;;;;;;;6.65;4.88;;;15.30;87.50;;;;;;4894752;29;20618;-75
2022/04/24 07:50:24;;;;;;;7.22;4.90;;;15.40;87.60;;;;;;4908903;29;20125;-76
2022/04/24 07:52:51;;;;;;;5.38;4.03;;;15.50;86.40;;;;;;4906761;29;20073;-76
2022/04/24 07:55:22;;;;;;;5.40;3.75;;;15.50;86.40;;;;;;4908383;29;20040;-76
2022/04/24 07:57:50;;;;;;;6.22;3.97;;;15.60;87.00;;;;;;4910922;29;20032;-76
2022/04/24 08:00:17;;;;;;;7.40;3.85;;;15.70;86.00;;;;;;4912497;29;20110;-76
2022/04/24 08:02:52;;;;;;;8.20;3.33;;;15.90;86.30;;;;;;4891895;29;20618;-76
2022/04/24 08:05:32;;;;;;;7.97;3.40;;;16.00;84.50;;;;;;4908850;29;20048;-78
2022/04/24 08:08:03;;;;;;;4.00;2.80;;;16.00;83.00;;;;;;4910398;29;20489;-75
2022/04/24 08:10:32;;;;;;;3.25;2.10;;;16.10;83.40;;;;;;4898917;29;20138;-75
2022/04/24 08:12:58;;;;;;;5.25;3.15;;;16.10;83.30;;;;;;4912253;29;20036;-75
2022/04/24 08:15:24;;;;;;;4.90;3.47;;;16.20;81.50;;;;;;4911690;29;20036;-76
2022/04/24 08:17:50;;;;;;;5.28;3.00;;;16.00;81.00;;;;;;4908347;29;20042;-76
2022/04/24 08:20:17;;;;;;;3.28;2.30;;;16.00;81.20;;;;;;4909752;29;20119;-76
2022/04/24 08:22:50;;;;;;;6.57;2.83;;;16.10;81.60;;;;;;4909789;29;20028;-76
2022/04/24 08:25:19;;;;;;;3.58;2.20;;;16.30;79.70;;;;;;4907942;29;20063;-76
2022/04/24 08:27:47;;;;;;;3.65;2.15;;;16.30;80.30;;;;;;4908574;29;20119;-77
2022/04/24 08:30:15;;;;;;;4.10;2.22;;;16.20;79.90;;;;;;4907060;29;20044;-77
2022/04/24 08:32:45;;;;;;;3.78;2.40;;;16.30;79.50;;;;;;4910058;29;20127;-76
2022/04/24 08:35:12;;;;;;;2.90;2.03;;;16.30;78.80;;;;;;4909040;29;20046;-77
2022/04/24 08:37:38;;;;;;;2.13;1.75;;;16.40;80.10;;;;;;4907628;29;20043;-77
2022/04/24 08:40:05;;;;;;;1.23;1.10;;;16.30;79.60;;;;;;4906925;29;20044;-76
2022/04/24 08:42:33;;;;;;;3.42;2.03;;;16.50;80.00;;;;;;4905964;29;20037;-76
2022/04/24 08:44:59;;;;;;;4.55;2.38;;;16.40;78.60;;;;;;4905701;29;20056;-76
2022/04/24 08:47:26;;;;;;;1.98;1.45;;;16.60;78.80;;;;;;4905750;29;20037;-76
2022/04/24 08:49:54;;;;;;;1.80;1.27;;;16.80;79.30;;;;;;4905509;29;20040;-76
2022/04/24 08:52:21;;;;;;;4.00;2.42;;;16.90;79.20;;;;;;4909456;29;20095;-75
2022/04/24 08:54:50;;;;;;;3.30;1.98;;;16.80;75.90;;;;;;4911934;29;20075;-76
2022/04/24 08:57:16;;;;;;;2.30;1.23;;;16.60;75.80;;;;;;4891061;29;20044;-76
2022/04/24 08:59:41;;;;;;;2.80;1.42;;;16.80;77.40;;;;;;4911987;29;20047;-76
2022/04/24 09:02:09;;;;;;;3.50;1.60;;;17.00;78.00;;;;;;4908541;29;20552;-75
2022/04/24 09:04:36;;;;;;;2.42;1.23;;;17.20;76.80;;;;;;4891876;29;20045;-75
2022/04/24 09:07:07;;;;;;;2.40;1.20;;;17.40;77.00;;;;;;4894041;29;20055;-76
2022/04/24 09:09:44;;;;;;;4.72;2.33;;;17.50;77.00;;;;;;4914827;29;20523;-76
2022/04/24 09:12:11;;;;;;;2.40;1.20;;;17.10;72.50;;;;;;4913095;29;20039;-75
2022/04/24 09:14:37;;;;;;;2.60;1.73;;;17.00;74.50;;;;;;4897363;29;20207;-76
2022/04/24 09:17:22;;;;;;;1.25;1.00;;;16.90;74.50;;;;;;4914677;29;20036;-76
2022/04/24 09:19:50;;;;;;;5.20;1.33;;;17.00;75.70;;;;;;4908133;29;20040;-77
2022/04/24 09:22:17;;;;;;;5.05;1.83;;;16.90;74.10;;;;;;4916003;29;20176;-75
2022/04/24 09:24:50;;;;;;;2.50;1.23;;;16.70;74.30;;;;;;4916249;29;20073;-75
2022/04/24 09:40:23;;;;;;;2.67;0.75;;;16.60;77.70;;;;;;6277316;22;128276;-80
2022/04/24 09:42:54;;;;;;;3.20;0.80;;;17.20;78.20;;;;;;6345411;22;20309;-80
2022/04/24 09:45:25;;;;;;;5.22;1.42;;;17.20;79.00;;;;;;6315777;22;20003;-79
2022/04/24 09:47:58;;;;;;;;;;;17.20;79.90;;;;;;6346533;22;20365;-79
2022/04/24 09:50:29;;;;;;;4.22;2.30;;;17.20;82.00;;;;;;6344170;22;19907;-79
2022/04/24 09:53:00;;;;;;;2.80;1.70;;;17.00;84.10;;;;;;6316023;22;20007;-79
2022/04/24 09:55:28;;;;;;;2.60;1.70;;;17.00;83.90;;;;;;6343337;22;19998;-79
2022/04/24 09:57:54;;;;;;;4.05;2.15;;;17.10;83.50;;;;;;6346286;22;20007;-81
2022/04/24 10:00:23;;;;;;;2.30;1.55;;;17.30;84.10;;;;;;6345327;22;20814;-81
2022/04/24 10:02:57;;;;;;;2.78;1.40;;;17.40;83.10;;;;;;6345608;22;20015;-79
2022/04/24 10:05:28;;;;;;;4.18;1.42;;;17.50;82.50;;;;;;6314615;22;20007;-80
2022/04/24 10:07:53;;;;;;;1.67;1.00;;;17.60;81.30;;;;;;6346163;22;20002;-78
2022/04/24 10:10:23;;;;;;;4.28;1.30;;;17.60;80.00;;;;;;6343627;22;20002;-78
2022/04/24 10:12:53;;;;;;;2.75;1.25;;;17.60;79.10;;;;;;6344482;22;20025;-82
2022/04/24 10:15:23;;;;;;;1.95;1.13;;;17.60;78.80;;;;;;6344185;22;20009;-81
2022/04/24 10:17:55;;;;;;;3.85;1.55;;;17.60;78.20;;;;;;6345281;22;20003;-81
2022/04/24 10:20:45;;;;;;;3.90;1.67;;;17.60;78.20;;;;;;6344281;22;20006;-81
2022/04/24 10:23:11;;;;;;;2.92;1.98;;;17.50;78.20;;;;;;6343693;22;20521;-81
2022/04/24 10:25:40;;;;;;;3.05;1.80;;;17.40;78.70;;;;;;6344038;22;20807;-79
2022/04/24 10:28:16;;;;;;;5.65;3.70;;;17.40;79.20;;;;;;6344535;22;20007;-79
2022/04/24 10:30:44;;;;;;;3.47;2.13;;;17.10;80.80;;;;;;6345962;22;20072;-79
2022/04/24 10:33:24;;;;;;;7.10;3.70;;;17.00;82.50;;;;;;6346249;22;20396;-79
2022/04/24 10:35:59;;;;;;;4.00;2.78;;;17.00;83.50;;;;;;6344691;22;19998;-79
2022/04/24 10:38:27;;;;;;;3.88;2.00;;;16.80;83.40;;;;;;6345777;22;20416;-79
2022/04/24 10:41:07;;;;;;;2.72;1.65;;;17.00;83.30;;;;;;6310993;22;20067;-79
2022/04/24 10:43:40;;;;;;;;;;;16.80;81.90;;;;;;6339114;22;20007;-79
2022/04/24 10:46:19;;;;;;;4.68;2.20;;;16.80;82.80;;;;;;6337014;22;19899;-79
2022/04/24 10:48:46;;;;;;;5.90;2.83;;;16.80;81.70;;;;;;6337159;22;20007;-78
2022/04/24 10:51:12;;;;;;;2.50;1.38;;;16.30;80.30;;;;;;6308615;22;19998;-78
2022/04/24 10:53:51;;;;;;;2.55;1.60;;;16.40;81.90;;;;;;6337774;22;20010;-77
2022/04/24 10:56:17;;;;;;;2.58;1.70;;;16.60;81.40;;;;;;6310285;22;20033;-78
2022/04/24 10:58:43;;;;;;;2.72;1.70;;;16.70;79.90;;;;;;6337346;22;20006;-78
2022/04/24 11:01:12;;;;;;;2.80;1.35;;;16.90;79.70;;;;;;6338073;22;20328;-78
2022/04/24 11:03:43;;;;;;;3.20;1.40;;;17.00;79.90;;;;;;6338306;22;20010;-79
2022/04/24 11:06:23;;;;;;;5.72;1.42;;;17.00;80.40;;;;;;6309565;22;20007;-78
2022/04/24 11:08:50;;;;;;;6.93;2.13;;;16.30;81.50;;;;;;6310145;22;20011;-79
2022/04/24 11:11:24;;;;;;;5.28;2.00;;;16.00;85.40;;;;;;6337788;22;20052;-80
2022/04/24 11:13:51;;;;;;;4.85;2.00;;;15.50;89.20;;;;;;6310073;22;20056;-80
2022/04/24 11:16:17;;;;;;;5.88;2.28;;;15.20;90.40;;;;;;6337402;22;20483;-82
2022/04/24 11:18:49;;;;;;;4.18;1.85;;;15.30;88.50;;;;;;6337200;22;20002;-79
2022/04/24 11:21:19;;;;;;;3.35;1.52;;;14.90;90.30;;;;;;6337868;22;20006;-78
2022/04/24 11:23:46;;;;;;;4.63;1.60;;;14.60;91.20;;;;;;6328033;22;20385;-79
2022/04/24 11:26:15;;;;;;;2.00;1.20;;;14.40;89.10;;;;;;6310040;22;20007;-78
2022/04/24 11:28:46;;;;;;;3.83;1.73;;;14.30;90.60;;;;;;6308874;22;20002;-82
2022/04/24 11:31:16;;;;;;;2.45;1.58;;;14.60;90.30;;;;;;6333644;22;20837;-81
2022/04/24 11:34:02;;;;;;;1.85;1.10;;;15.00;89.90;;;;;;6336396;22;20025;-81
2022/04/24 11:36:35;;;;;;;2.08;1.17;;;15.70;90.00;;;;;;6336431;22;19999;-82
2022/04/24 11:39:03;;;;;;;1.92;1.20;;;16.40;87.30;;;;;;6336721;22;20011;-83
2022/04/24 11:41:34;;;;;;;4.38;0.82;;;17.30;86.30;;;;;;6336501;22;20006;-82
2022/04/24 11:52:27;;;;;;;1.63;1.00;;;19.80;70.00;;;;;;6336185;22;20390;-80
2022/04/24 11:54:53;;;;;;;1.25;0.95;;;20.00;68.80;;;;;;6335755;22;20006;-79
2022/04/24 11:57:19;;;;;;;3.30;1.00;;;20.70;64.70;;;;;;6336767;22;20003;-79
2022/04/24 11:59:55;;;;;;;1.20;0.80;;;20.40;65.30;;;;;;6336721;22;20014;-79
2022/04/24 12:02:30;;;;;;;0.73;0.50;;;20.90;67.20;;;;;;6308557;22;20010;-81
2022/04/24 12:04:59;;;;;;;0.95;0.52;;;21.00;62.60;;;;;;6303983;22;20007;-80
2022/04/24 12:07:34;;;;;;;3.15;0.73;;;21.30;66.40;;;;;;6336290;22;20064;-80
2022/04/24 12:10:11;;;;;;;1.98;0.60;;;20.50;63.70;;;;;;6309390;22;20038;-79
2022/04/24 12:12:45;;;;;;;1.63;0.60;;;20.40;65.20;;;;;;6336020;22;20325;-80
2022/04/24 12:15:22;;;;;;;0.90;0.50;;;20.30;64.20;;;;;;6336107;22;19999;-80
2022/04/24 12:17:59;;;;;;;1.65;0.80;;;20.30;66.60;;;;;;6308743;22;20500;-79
2022/04/24 12:20:35;;;;;;;1.05;0.60;;;19.80;67.30;;;;;;6308476;22;20118;-79
2022/04/24 12:23:15;;;;;;;3.60;0.80;;;19.30;68.10;;;;;;6334457;22;20003;-80
2022/04/24 12:25:49;;;;;;;1.77;0.88;;;19.10;67.30;;;;;;6334801;22;20076;-80
2022/04/24 12:28:31;;;;;;;1.40;0.50;;;18.80;66.30;;;;;;6334394;22;20002;-81
2022/04/24 12:31:01;;;;;;;1.50;0.40;;;18.80;68.00;;;;;;6335210;22;20137;-79
2022/04/24 12:33:28;;;;;;;1.70;0.93;;;19.00;67.20;;;;;;6352919;22;20034;-79
2022/04/24 12:35:55;;;;;;;2.92;0.68;;;18.50;66.10;;;;;;6367340;22;20131;-78
2022/04/24 12:38:23;;;;;;;3.65;0.82;;;18.50;69.00;;;;;;6367117;22;20002;-80
2022/04/24 12:40:59;;;;;;;1.55;0.75;;;18.30;68.20;;;;;;6367592;22;19998;-80
2022/04/24 12:43:30;;;;;;;1.55;0.57;;;18.00;70.00;;;;;;6368048;22;20064;-79
2022/04/24 12:45:57;;;;;;;1.92;0.80;;;17.70;69.60;;;;;;6339738;22;19998;-80
2022/04/24 12:48:23;;;;;;;1.13;0.55;;;17.70;71.90;;;;;;6340722;22;20006;-79
2022/04/24 12:50:53;;;;;;;2.35;1.05;;;17.70;71.10;;;;;;6340184;22;20030;-79
2022/04/24 12:53:22;;;;;;;1.77;1.00;;;17.50;72.50;;;;;;6368052;22;20002;-79
2022/04/24 12:55:51;;;;;;;1.30;0.85;;;17.30;72.80;;;;;;6366813;22;20328;-79
2022/04/24 12:58:20;;;;;;;1.42;0.90;;;17.20;74.00;;;;;;6366707;22;20035;-78
2022/04/24 13:00:46;;;;;;;1.65;1.10;;;17.50;74.20;;;;;;6339006;22;20059;-79
2022/04/24 13:03:14;;;;;;;3.22;0.77;;;17.50;72.10;;;;;;6367104;22;20002;-79
2022/04/24 13:05:42;;;;;;;1.00;0.70;;;17.90;72.70;;;;;;6367075;22;20030;-80
2022/04/24 13:08:13;;;;;;;1.30;0.55;;;17.90;68.80;;;;;;6338684;22;20317;-79
2022/04/24 13:10:39;;;;;;;1.42;0.60;;;18.30;70.40;;;;;;6367312;22;19998;-80
2022/04/24 13:13:05;;;;;;;1.77;0.85;;;18.30;69.40;;;;;;6367001;22;20700;-80
2022/04/24 13:15:33;;;;;;;2.15;1.20;;;18.40;68.50;;;;;;6367968;22;20415;-80